Observation data for Friona on 12/14/2019      Previous  Date       Current Mesonet Observations  Soil Data  Daily Summary Page  Observations in Plain Language
KFAS 140600Z 35007KT 02/M05 A2996 RMK A01 T00191051  RH  060%=      5-min Rain = 0
KFAS 140605Z 01006KT 01/M05 A2995 RMK A01 T00141052  RH  062%=      5-min Rain = 0
KFAS 140610Z 01008KT 01/M05 A2995 RMK A01 T00111050  RH  064%=      5-min Rain = 0
KFAS 140615Z 01007KT 01/M05 A2995 RMK A01 T00121049  RH  064%=      5-min Rain = 0
KFAS 140620Z 00006KT 01/M05 A2995 RMK A01 T00111050  RH  064%=      5-min Rain = 0
KFAS 140625Z 01005KT 01/M05 A2995 RMK A01 T00071051  RH  065%=      5-min Rain = 0
KFAS 140630Z 01005KT 01/M05 A2995 RMK A01 T00081051  RH  065%=      5-min Rain = 0
KFAS 140635Z 01007KT 01/M05 A2994 RMK A01 T00071052  RH  065%=      5-min Rain = 0
KFAS 140640Z 03008KT 01/M05 A2993 RMK A01 T00071050  RH  066%=      5-min Rain = 0
KFAS 140645Z 03008KT 01/M05 A2992 RMK A01 T00111047  RH  066%=      5-min Rain = 0
KFAS 140650Z 03008KT 01/M05 A2992 RMK A01 T00141045  RH  065%=      5-min Rain = 0
KFAS 140655Z 03006KT 02/M05 A2993 RMK A01 T00151045  RH  065%=      5-min Rain = 0
KFAS 140700Z 07003KT 02/M05 A2993 RMK A01 T00161045  RH  064%=      5-min Rain = 0
KFAS 140705Z 15005KT 01/M05 A2994 RMK A01 T00111045  RH  066%=      5-min Rain = 0
KFAS 140710Z 10003KT 02/M04 A2995 RMK A01 T00171041  RH  066%=      5-min Rain = 0
KFAS 140715Z 08004KT 03/M04 A2995 RMK A01 T00271040  RH  062%=      5-min Rain = 0
KFAS 140720Z 06004KT 03/M04 A2995 RMK A01 T00291041  RH  060%=      5-min Rain = 0
KFAS 140725Z 03005KT 01/M05 A2995 RMK A01 T00131049  RH  064%=      5-min Rain = 0
KFAS 140730Z 02005KT M01/M05 A2995 RMK A01 T10121050  RH  075%=      5-min Rain = 0
KFAS 140735Z 02005KT M02/M05 A2995 RMK A01 T10161047  RH  080%=      5-min Rain = 0
KFAS 140740Z 02005KT M01/M04 A2995 RMK A01 T10101043  RH  078%=      5-min Rain = 0
KFAS 140745Z 03004KT M00/M04 A2995 RMK A01 T10011042  RH  074%=      5-min Rain = 0
KFAS 140750Z 03004KT 00/M04 A2995 RMK A01 T00041041  RH  072%=      5-min Rain = 0
KFAS 140755Z 06002KT 01/M05 A2995 RMK A01 T00051045  RH  070%=      5-min Rain = 0
KFAS 140800Z 06004KT 00/M05 A2995 RMK A01 T00011046  RH  071%=      5-min Rain = 0
KFAS 140805Z 07004KT 00/M04 A2994 RMK A01 T00021042  RH  073%=      5-min Rain = 0
KFAS 140810Z 07004KT 01/M04 A2994 RMK A01 T00091038  RH  071%=      5-min Rain = 0
KFAS 140815Z 09003KT 02/M04 A2993 RMK A01 T00151039  RH  068%=      5-min Rain = 0
KFAS 140820Z 08003KT 02/M04 A2993 RMK A01 T00161040  RH  066%=      5-min Rain = 0
KFAS 140825Z 09003KT 02/M04 A2993 RMK A01 T00161041  RH  066%=      5-min Rain = 0
KFAS 140830Z 12002KT 01/M04 A2993 RMK A01 T00141039  RH  068%=      5-min Rain = 0
KFAS 140835Z 15003KT 01/M04 A2993 RMK A01 T00131039  RH  069%=      5-min Rain = 0
KFAS 140840Z 16003KT 01/M04 A2993 RMK A01 T00081041  RH  071%=      5-min Rain = 0
KFAS 140845Z 16003KT 00/M04 A2993 RMK A01 T00011040  RH  074%=      5-min Rain = 0
KFAS 140850Z 13002KT M00/M04 A2993 RMK A01 T10011040  RH  075%=      5-min Rain = 0
KFAS 140855Z 12000KT M01/M05 A2993 RMK A01 T10091047  RH  076%=      5-min Rain = 0
KFAS 140900Z 11000KT M02/M04 A2993 RMK A01 T10151044  RH  081%=      5-min Rain = 0
KFAS 140905Z 11001KT M01/M04 A2992 RMK A01 T10131042  RH  081%=      5-min Rain = 0
KFAS 140910Z 15001KT M01/M04 A2992 RMK A01 T10101040  RH  080%=      5-min Rain = 0
KFAS 140915Z 15000KT M01/M04 A2992 RMK A01 T10081039  RH  079%=      5-min Rain = 0
KFAS 140920Z 00000KT M01/M04 A2992 RMK A01 T10051039  RH  078%=      5-min Rain = 0
KFAS 140925Z 00000KT M01/M04 A2992 RMK A01 T10051040  RH  078%=      5-min Rain = 0
KFAS 140930Z 15001KT M01/M05 A2992 RMK A01 T10111046  RH  077%=      5-min Rain = 0
KFAS 140935Z 00001KT M02/M05 A2992 RMK A01 T10211051  RH  080%=      5-min Rain = 0
KFAS 140940Z 35003KT M03/M05 A2992 RMK A01 T10261054  RH  082%=      5-min Rain = 0
KFAS 140945Z 35002KT M03/M05 A2992 RMK A01 T10301052  RH  085%=      5-min Rain = 0
KFAS 140950Z 35002KT M03/M05 A2992 RMK A01 T10261046  RH  086%=      5-min Rain = 0
KFAS 140955Z 35003KT M02/M05 A2992 RMK A01 T10211048  RH  082%=      5-min Rain = 0
KFAS 141000Z 34003KT M02/M05 A2991 RMK A01 T10221052  RH  081%=      5-min Rain = 0
KFAS 141005Z 35002KT M03/M05 A2991 RMK A01 T10261052  RH  082%=      5-min Rain = 0
KFAS 141010Z 00003KT M03/M05 A2991 RMK A01 T10271052  RH  084%=      5-min Rain = 0
KFAS 141015Z 01003KT M03/M05 A2991 RMK A01 T10271053  RH  083%=      5-min Rain = 0
KFAS 141020Z 01003KT M03/M06 A2991 RMK A01 T10261055  RH  081%=      5-min Rain = 0
KFAS 141025Z 04003KT M02/M05 A299 RMK A01 T10241052  RH  081%=      5-min Rain = 0
KFAS 141030Z 05001KT M02/M05 A299 RMK A01 T10231052  RH  081%=      5-min Rain = 0
KFAS 141035Z 05000KT M03/M06 A299 RMK A01 T10291058  RH  081%=      5-min Rain = 0
KFAS 141040Z 05000KT M04/M06 A2989 RMK A01 T10371062  RH  083%=      5-min Rain = 0
KFAS 141045Z 14000KT M04/M06 A2989 RMK A01 T10431063  RH  086%=      5-min Rain = 0
KFAS 141050Z 18002KT M04/M06 A2989 RMK A01 T10411059  RH  088%=      5-min Rain = 0
KFAS 141055Z 21003KT M04/M05 A2989 RMK A01 T10351053  RH  088%=      5-min Rain = 0
KFAS 141100Z 21004KT M03/M05 A2988 RMK A01 T10341054  RH  086%=      5-min Rain = 0
KFAS 141105Z 21005KT M04/M05 A2988 RMK A01 T10351053  RH  088%=      5-min Rain = 0
KFAS 141110Z 22003KT M03/M05 A2988 RMK A01 T10341051  RH  088%=      5-min Rain = 0
KFAS 141115Z 22003KT M03/M05 A2988 RMK A01 T10291047  RH  088%=      5-min Rain = 0
KFAS 141120Z 26003KT M03/M05 A2988 RMK A01 T10291053  RH  084%=      5-min Rain = 0
KFAS 141125Z 23003KT M03/M05 A2988 RMK A01 T10331052  RH  087%=      5-min Rain = 0
KFAS 141130Z 21002KT M03/M05 A2987 RMK A01 T10291048  RH  088%=      5-min Rain = 0
KFAS 141135Z 25002KT M03/M05 A2988 RMK A01 T10281049  RH  085%=      5-min Rain = 0
KFAS 141140Z 27002KT M03/M06 A2988 RMK A01 T10331055  RH  085%=      5-min Rain = 0
KFAS 141145Z 22002KT M03/M05 A2988 RMK A01 T10341054  RH  087%=      5-min Rain = 0
KFAS 141150Z 18002KT M03/M05 A2988 RMK A01 T10341053  RH  087%=      5-min Rain = 0
KFAS 141155Z 30001KT M03/M05 A2988 RMK A01 T10341053  RH  087%=      5-min Rain = 0
KFAS 141200Z 32000KT M03/M05 A2988 RMK A01 T10341051  RH  088%=      5-min Rain = 0
KFAS 141205Z 00000KT M03/M05 A2988 RMK A01 T10311050  RH  087%=      5-min Rain = 0
KFAS 141210Z 01000KT M03/M05 A2989 RMK A01 T10291051  RH  085%=      5-min Rain = 0
KFAS 141215Z 01002KT M03/M05 A2989 RMK A01 T10291053  RH  083%=      5-min Rain = 0
KFAS 141220Z 01002KT M04/M06 A2988 RMK A01 T10351059  RH  084%=      5-min Rain = 0
KFAS 141225Z 05002KT M04/M06 A2988 RMK A01 T10381058  RH  086%=      5-min Rain = 0
KFAS 141230Z 02003KT M04/M06 A2988 RMK A01 T10381058  RH  087%=      5-min Rain = 0
KFAS 141235Z 00003KT M04/M06 A2988 RMK A01 T10381057  RH  086%=      5-min Rain = 0
KFAS 141240Z 02002KT M04/M06 A2988 RMK A01 T10371057  RH  087%=      5-min Rain = 0
KFAS 141245Z 08002KT M04/M05 A2988 RMK A01 T10351053  RH  087%=      5-min Rain = 0
KFAS 141250Z 12002KT M04/M06 A2987 RMK A01 T10351056  RH  086%=      5-min Rain = 0
KFAS 141255Z 14002KT M05/M07 A2987 RMK A01 T10451068  RH  084%=      5-min Rain = 0
KFAS 141300Z 15000KT M04/M06 A2988 RMK A01 T10411056  RH  090%=      5-min Rain = 0
KFAS 141305Z 30001KT M04/M07 A2988 RMK A01 T10421065  RH  084%=      5-min Rain = 0
KFAS 141310Z 30001KT M05/M06 A2988 RMK A01 T10451062  RH  088%=      5-min Rain = 0
KFAS 141315Z 29001KT M04/M06 A2988 RMK A01 T10411058  RH  088%=      5-min Rain = 0
KFAS 141320Z 27002KT M04/M06 A2989 RMK A01 T10401058  RH  087%=      5-min Rain = 0
KFAS 141325Z 27002KT M04/M06 A2989 RMK A01 T10431060  RH  088%=      5-min Rain = 0
KFAS 141330Z 26002KT M04/M06 A2989 RMK A01 T10431060  RH  088%=      5-min Rain = 0
KFAS 141335Z 25004KT M04/M06 A2988 RMK A01 T10431060  RH  088%=      5-min Rain = 0
KFAS 141340Z 23004KT M05/M07 A2988 RMK A01 T10481065  RH  088%=      5-min Rain = 0
KFAS 141345Z 22005KT M05/M07 A2988 RMK A01 T10521067  RH  089%=      5-min Rain = 0
KFAS 141350Z 21004KT M05/M07 A2988 RMK A01 T10541068  RH  090%=      5-min Rain = 0
KFAS 141355Z 20003KT M05/M07 A2988 RMK A01 T10531066  RH  091%=      5-min Rain = 0
KFAS 141400Z 23002KT M05/M06 A2988 RMK A01 T10501062  RH  092%=      5-min Rain = 0
KFAS 141405Z 23001KT M04/M05 A2988 RMK A01 T10431054  RH  092%=      5-min Rain = 0
KFAS 141410Z 27002KT M04/M05 A2988 RMK A01 T10361052  RH  089%=      5-min Rain = 0
KFAS 141415Z 17004KT M04/M06 A2987 RMK A01 T10361056  RH  087%=      5-min Rain = 0
KFAS 141420Z 17003KT M03/M05 A2987 RMK A01 T10301048  RH  088%=      5-min Rain = 0
KFAS 141425Z 31000KT M03/M06 A2988 RMK A01 T10311055  RH  084%=      5-min Rain = 0
KFAS 141430Z 16003KT M03/M05 A2988 RMK A01 T10331052  RH  087%=      5-min Rain = 0
KFAS 141435Z 15004KT M02/M04 A2987 RMK A01 T10211037  RH  089%=      5-min Rain = 0
KFAS 141440Z 16003KT M01/M03 A2987 RMK A01 T10101031  RH  086%=      5-min Rain = 0
KFAS 141445Z 14003KT 00/M03 A2987 RMK A01 T00021025  RH  083%=      5-min Rain = 0
KFAS 141450Z 13003KT 01/M03 A2987 RMK A01 T00081031  RH  076%=      5-min Rain = 0
KFAS 141455Z 14004KT 01/M03 A2987 RMK A01 T00131034  RH  072%=      5-min Rain = 0
KFAS 141500Z 14006KT 02/M03 A2986 RMK A01 T00181029  RH  072%=      5-min Rain = 0
KFAS 141505Z 15007KT 02/M03 A2986 RMK A01 T00221027  RH  070%=      5-min Rain = 0
KFAS 141510Z 15006KT 03/M03 A2986 RMK A01 T00261025  RH  070%=      5-min Rain = 0
KFAS 141515Z 14007KT 03/M02 A2986 RMK A01 T00311023  RH  068%=      5-min Rain = 0
KFAS 141520Z 14006KT 04/M03 A2986 RMK A01 T00351025  RH  065%=      5-min Rain = 0
KFAS 141525Z 13007KT 04/M03 A2986 RMK A01 T00411025  RH  062%=      5-min Rain = 0
KFAS 141530Z 14010KT 05/M03 A2986 RMK A01 T00471031  RH  058%=      5-min Rain = 0
KFAS 141535Z 14012KT 05/M03 A2986 RMK A01 T00491032  RH  056%=      5-min Rain = 0
KFAS 141540Z 14010KT 05/M03 A2986 RMK A01 T00531031  RH  055%=      5-min Rain = 0
KFAS 141545Z 14011KT 06/M04 A2986 RMK A01 T00551035  RH  052%=      5-min Rain = 0
KFAS 141550Z 13013KT 06/M04 A2986 RMK A01 T00571038  RH  051%=      5-min Rain = 0
KFAS 141555Z 13012KT 06/M04 A2986 RMK A01 T00581038  RH  050%=      5-min Rain = 0
KFAS 141600Z 14012KT 06/M04 A2986 RMK A01 T00611036  RH  050%=      5-min Rain = 0
KFAS 141605Z 15011KT 07/M04 A2986 RMK A01 T00651035  RH  049%=      5-min Rain = 0
KFAS 141610Z 15013KT 07/M03 A2986 RMK A01 T00691033  RH  049%=      5-min Rain = 0
KFAS 141615Z 16013KT 07/M03 A2986 RMK A01 T00731028  RH  049%=      5-min Rain = 0
KFAS 141620Z 16014KT 07/M03 A2986 RMK A01 T00731028  RH  049%=      5-min Rain = 0
KFAS 141625Z 16016KT 07/M02 A2986 RMK A01 T00741024  RH  050%=      5-min Rain = 0
KFAS 141630Z 17017KT 08/M02 A2986 RMK A01 T00761021  RH  051%=      5-min Rain = 0
KFAS 141635Z 17013G19KT 08/M02 A2986 RMK A01 T00791018  RH  051%=      5-min Rain = 0
KFAS 141640Z 17014KT 08/M02 A2986 RMK A01 T00831015  RH  050%=      5-min Rain = 0
KFAS 141645Z 17012KT 09/M01 A2986 RMK A01 T00861014  RH  050%=      5-min Rain = 0
KFAS 141650Z 16013KT 09/M01 A2986 RMK A01 T00901012  RH  049%=      5-min Rain = 0
KFAS 141655Z 17013KT 09/M01 A2986 RMK A01 T00921011  RH  049%=      5-min Rain = 0
KFAS 141700Z 16011KT 10/M01 A2986 RMK A01 T00951008  RH  049%=      5-min Rain = 0
KFAS 141705Z 17012KT 10/M01 A2985 RMK A01 T00981007  RH  048%=      5-min Rain = 0
KFAS 141710Z 16015KT 10/M01 A2985 RMK A01 T00991007  RH  048%=      5-min Rain = 0
KFAS 141715Z 17014KT 10/M01 A2985 RMK A01 T01011006  RH  048%=      5-min Rain = 0
KFAS 141720Z 17015KT 10/M01 A2985 RMK A01 T01011007  RH  047%=      5-min Rain = 0
KFAS 141725Z 17016KT 10/M01 A2985 RMK A01 T01011006  RH  048%=      5-min Rain = 0
KFAS 141730Z 18015KT 10/M01 A2984 RMK A01 T01021005  RH  048%=      5-min Rain = 0
KFAS 141735Z 18014KT 11/M00 A2984 RMK A01 T01061003  RH  047%=      5-min Rain = 0
KFAS 141740Z 17015KT 11/M00 A2983 RMK A01 T01091004  RH  046%=      5-min Rain = 0
KFAS 141745Z 17014KT 11/M00 A2983 RMK A01 T01121003  RH  046%=      5-min Rain = 0
KFAS 141750Z 17014KT 11/M00 A2983 RMK A01 T01141003  RH  045%=      5-min Rain = 0
KFAS 141755Z 17015KT 12/M00 A2982 RMK A01 T01151003  RH  045%=      5-min Rain = 0
KFAS 141800Z 18015KT 12/M00 A2982 RMK A01 T01171004  RH  044%=      5-min Rain = 0
KFAS 141805Z 17014KT 12/M00 A2981 RMK A01 T01181003  RH  044%=      5-min Rain = 0
KFAS 141810Z 17014KT 12/M00 A2981 RMK A01 T01211003  RH  043%=      5-min Rain = 0
KFAS 141815Z 17015KT 12/M00 A2981 RMK A01 T01241003  RH  042%=      5-min Rain = 0
KFAS 141820Z 18015KT 13/M00 A298 RMK A01 T01251003  RH  042%=      5-min Rain = 0
KFAS 141825Z 18016G21KT 13/M01 A298 RMK A01 T01271006  RH  040%=      5-min Rain = 0
KFAS 141830Z 17015KT 13/M01 A298 RMK A01 T01301005  RH  040%=      5-min Rain = 0
KFAS 141835Z 18015G20KT 13/M01 A2979 RMK A01 T01341005  RH  039%=      5-min Rain = 0
KFAS 141840Z 18014G19KT 13/M00 A2979 RMK A01 T01321004  RH  039%=      5-min Rain = 0
KFAS 141845Z 18015KT 13/M00 A2978 RMK A01 T01341004  RH  039%=      5-min Rain = 0
KFAS 141850Z 17015KT 14/M00 A2978 RMK A01 T01391003  RH  038%=      5-min Rain = 0
KFAS 141855Z 18015KT 14/M00 A2977 RMK A01 T01401004  RH  037%=      5-min Rain = 0
KFAS 141900Z 19015KT 14/M01 A2977 RMK A01 T01431005  RH  036%=      5-min Rain = 0
KFAS 141905Z 19015KT 15/M01 A2977 RMK A01 T01481005  RH  035%=      5-min Rain = 0
KFAS 141910Z 19016KT 15/M01 A2976 RMK A01 T01511008  RH  034%=      5-min Rain = 0
KFAS 141915Z 19014KT 15/M01 A2976 RMK A01 T01521008  RH  034%=      5-min Rain = 0
KFAS 141920Z 20013G18KT 16/M01 A2976 RMK A01 T01561010  RH  033%=      5-min Rain = 0
KFAS 141925Z 20013KT 16/M01 A2975 RMK A01 T01571008  RH  033%=      5-min Rain = 0
KFAS 141930Z 20015G20KT 16/M01 A2975 RMK A01 T01571009  RH  032%=      5-min Rain = 0
KFAS 141935Z 21014KT 16/M01 A2975 RMK A01 T01601008  RH  032%=      5-min Rain = 0
KFAS 141940Z 21012G19KT 16/M01 A2975 RMK A01 T01611009  RH  032%=      5-min Rain = 0
KFAS 141945Z 22013KT 16/M01 A2974 RMK A01 T01611009  RH  032%=      5-min Rain = 0
KFAS 141950Z 21014KT 16/M01 A2974 RMK A01 T01601008  RH  032%=      5-min Rain = 0
KFAS 141955Z 22012G17KT 16/M01 A2974 RMK A01 T01621008  RH  032%=      5-min Rain = 0
KFAS 142000Z 23013G19KT 17/M01 A2973 RMK A01 T01661005  RH  032%=      5-min Rain = 0
KFAS 142005Z 24013G20KT 17/M01 A2973 RMK A01 T01671006  RH  031%=      5-min Rain = 0
KFAS 142010Z 25011G17KT 17/M01 A2973 RMK A01 T01691006  RH  031%=      5-min Rain = 0
KFAS 142015Z 25013KT 17/M01 A2973 RMK A01 T01681005  RH  031%=      5-min Rain = 0
KFAS 142020Z 23012G19KT 17/M00 A2972 RMK A01 T01711004  RH  031%=      5-min Rain = 0
KFAS 142025Z 23014G19KT 17/M00 A2972 RMK A01 T01721004  RH  030%=      5-min Rain = 0
KFAS 142030Z 25013G18KT 17/M01 A2972 RMK A01 T01711005  RH  030%=      5-min Rain = 0
KFAS 142035Z 23012G17KT 17/M01 A2972 RMK A01 T01711007  RH  030%=      5-min Rain = 0
KFAS 142040Z 22011KT 17/M01 A2972 RMK A01 T01721006  RH  030%=      5-min Rain = 0
KFAS 142045Z 22012G17KT 17/M01 A2971 RMK A01 T01731005  RH  030%=      5-min Rain = 0
KFAS 142050Z 21012KT 18/M00 A2971 RMK A01 T01761003  RH  030%=      5-min Rain = 0
KFAS 142055Z 22012KT 18/M00 A297 RMK A01 T01771003  RH  030%=      5-min Rain = 0
KFAS 142100Z 22011KT 18/M00 A297 RMK A01 T01791001  RH  030%=      5-min Rain = 0
KFAS 142105Z 22012G17KT 18/M00 A297 RMK A01 T01791001  RH  030%=      5-min Rain = 0
KFAS 142110Z 24014G19KT 18/M00 A297 RMK A01 T01801001  RH  030%=      5-min Rain = 0
KFAS 142115Z 23012G17KT 18/M00 A297 RMK A01 T01811001  RH  030%=      5-min Rain = 0
KFAS 142120Z 23012G17KT 18/00 A297 RMK A01 T01840001  RH  029%=      5-min Rain = 0
KFAS 142125Z 21011KT 18/00 A297 RMK A01 T01840000  RH  029%=      5-min Rain = 0
KFAS 142130Z 22012KT 19/00 A297 RMK A01 T01850002  RH  030%=      5-min Rain = 0
KFAS 142135Z 24012KT 19/00 A297 RMK A01 T01860004  RH  030%=      5-min Rain = 0
KFAS 142140Z 25012KT 19/00 A297 RMK A01 T01850003  RH  030%=      5-min Rain = 0
KFAS 142145Z 23012KT 19/00 A297 RMK A01 T01860004  RH  030%=      5-min Rain = 0
KFAS 142150Z 24012KT 19/01 A2969 RMK A01 T01860005  RH  030%=      5-min Rain = 0
KFAS 142155Z 24012G18KT 19/01 A2969 RMK A01 T01870008  RH  030%=      5-min Rain = 0
KFAS 142200Z 23013G19KT 19/01 A2969 RMK A01 T01870009  RH  031%=      5-min Rain = 0
KFAS 142205Z 23014KT 19/01 A2969 RMK A01 T01860008  RH  031%=      5-min Rain = 0
KFAS 142210Z 23012G17KT 19/01 A2969 RMK A01 T01860011  RH  031%=      5-min Rain = 0
KFAS 142215Z 23013G18KT 19/01 A2969 RMK A01 T01860011  RH  031%=      5-min Rain = 0
KFAS 142220Z 24014G19KT 19/01 A2969 RMK A01 T01850010  RH  031%=      5-min Rain = 0
KFAS 142225Z 24014KT 19/01 A2969 RMK A01 T01850010  RH  031%=      5-min Rain = 0
KFAS 142230Z 23010KT 19/01 A2969 RMK A01 T01860012  RH  032%=      5-min Rain = 0
KFAS 142235Z 22012KT 18/01 A2969 RMK A01 T01840011  RH  032%=      5-min Rain = 0
KFAS 142240Z 22010KT 18/01 A2969 RMK A01 T01820012  RH  032%=      5-min Rain = 0
KFAS 142245Z 22009KT 18/01 A2969 RMK A01 T01810012  RH  033%=      5-min Rain = 0
KFAS 142250Z 22009KT 18/01 A2969 RMK A01 T01790012  RH  033%=      5-min Rain = 0
KFAS 142255Z 22008KT 18/01 A2969 RMK A01 T01760014  RH  034%=      5-min Rain = 0
KFAS 142300Z 22009KT 17/02 A2969 RMK A01 T01730015  RH  035%=      5-min Rain = 0
KFAS 142305Z 22008KT 17/02 A2969 RMK A01 T01710016  RH  036%=      5-min Rain = 0
KFAS 142310Z 23010KT 17/02 A297 RMK A01 T01700015  RH  036%=      5-min Rain = 0
KFAS 142315Z 23009KT 17/01 A297 RMK A01 T01690014  RH  036%=      5-min Rain = 0
KFAS 142320Z 23009KT 16/02 A297 RMK A01 T01640015  RH  037%=      5-min Rain = 0
KFAS 142325Z 22009KT 16/02 A297 RMK A01 T01600015  RH  038%=      5-min Rain = 0
KFAS 142330Z 23009KT 16/02 A297 RMK A01 T01570015  RH  039%=      5-min Rain = 0
KFAS 142335Z 23009KT 15/02 A297 RMK A01 T01530016  RH  040%=      5-min Rain = 0
KFAS 142340Z 24008KT 15/02 A297 RMK A01 T01470017  RH  042%=      5-min Rain = 0
KFAS 142345Z 23009KT 14/02 A297 RMK A01 T01410017  RH  044%=      5-min Rain = 0
KFAS 142350Z 23009KT 14/02 A297 RMK A01 T01390017  RH  044%=      5-min Rain = 0
KFAS 142355Z 23008KT 13/02 A297 RMK A01 T01320016  RH  046%=      5-min Rain = 0
KFAS 150000Z 23009KT 13/02 A2971 RMK A01 T01250016  RH  048%=      5-min Rain = 0
KFAS 150005Z 23009KT 13/02 A2971 RMK A01 T01260016  RH  048%=      5-min Rain = 0
KFAS 150010Z 24008KT 12/01 A2971 RMK A01 T01200014  RH  049%=      5-min Rain = 0
KFAS 150015Z 23008KT 11/01 A2971 RMK A01 T01140014  RH  051%=      5-min Rain = 0
KFAS 150020Z 24010KT 12/02 A2971 RMK A01 T01190016  RH  050%=      5-min Rain = 0
KFAS 150025Z 25009KT 12/02 A2971 RMK A01 T01230016  RH  049%=      5-min Rain = 0
KFAS 150030Z 24008KT 12/02 A2971 RMK A01 T01200015  RH  049%=      5-min Rain = 0
KFAS 150035Z 22007KT 11/01 A2971 RMK A01 T01110013  RH  052%=      5-min Rain = 0
KFAS 150040Z 22007KT 10/01 A2971 RMK A01 T00990011  RH  055%=      5-min Rain = 0
KFAS 150045Z 22006KT 09/01 A2971 RMK A01 T00930010  RH  057%=      5-min Rain = 0
KFAS 150050Z 23007KT 09/01 A2971 RMK A01 T00940011  RH  057%=      5-min Rain = 0
KFAS 150055Z 22006KT 09/01 A2971 RMK A01 T00940010  RH  057%=      5-min Rain = 0
KFAS 150100Z 22006KT 09/01 A2971 RMK A01 T00940010  RH  057%=      5-min Rain = 0
KFAS 150105Z 21006KT 09/01 A2971 RMK A01 T00940011  RH  057%=      5-min Rain = 0
KFAS 150110Z 22006KT 09/01 A2971 RMK A01 T00920010  RH  057%=      5-min Rain = 0
KFAS 150115Z 22006KT 09/01 A2971 RMK A01 T00920011  RH  057%=      5-min Rain = 0
KFAS 150120Z 22006KT 09/01 A2971 RMK A01 T00880010  RH  059%=      5-min Rain = 0
KFAS 150125Z 21006KT 09/01 A2972 RMK A01 T00850011  RH  061%=      5-min Rain = 0
KFAS 150130Z 21006KT 09/01 A2972 RMK A01 T00870012  RH  060%=      5-min Rain = 0
KFAS 150135Z 21006KT 09/01 A2972 RMK A01 T00860011  RH  060%=      5-min Rain = 0
KFAS 150140Z 20005KT 08/01 A2972 RMK A01 T00770009  RH  063%=      5-min Rain = 0
KFAS 150145Z 21006KT 07/01 A2972 RMK A01 T00730010  RH  065%=      5-min Rain = 0
KFAS 150150Z 22006KT 07/01 A2972 RMK A01 T00730009  RH  065%=      5-min Rain = 0
KFAS 150155Z 21008KT 07/01 A2973 RMK A01 T00700007  RH  065%=      5-min Rain = 0
KFAS 150200Z 21009KT 06/01 A2973 RMK A01 T00630007  RH  068%=      5-min Rain = 0
KFAS 150205Z 21007KT 06/01 A2972 RMK A01 T00630008  RH  069%=      5-min Rain = 0
KFAS 150210Z 22005KT 06/01 A2972 RMK A01 T00630008  RH  069%=      5-min Rain = 0
KFAS 150215Z 21006KT 07/01 A2973 RMK A01 T00670009  RH  067%=      5-min Rain = 0
KFAS 150220Z 21007KT 07/01 A2973 RMK A01 T00730009  RH  065%=      5-min Rain = 0
KFAS 150225Z 21006KT 07/01 A2973 RMK A01 T00730010  RH  065%=      5-min Rain = 0
KFAS 150230Z 21006KT 07/01 A2972 RMK A01 T00670007  RH  067%=      5-min Rain = 0
KFAS 150235Z 20006KT 06/01 A2973 RMK A01 T00560005  RH  070%=      5-min Rain = 0
KFAS 150240Z 20007KT 06/01 A2973 RMK A01 T00560007  RH  072%=      5-min Rain = 0
KFAS 150245Z 20008KT 06/01 A2973 RMK A01 T00580007  RH  071%=      5-min Rain = 0
KFAS 150250Z 21006KT 06/01 A2973 RMK A01 T00590009  RH  071%=      5-min Rain = 0
KFAS 150255Z 22004KT 06/01 A2973 RMK A01 T00580008  RH  071%=      5-min Rain = 0
KFAS 150300Z 23004KT 06/01 A2973 RMK A01 T00590010  RH  072%=      5-min Rain = 0
KFAS 150305Z 25003KT 06/01 A2972 RMK A01 T00580006  RH  070%=      5-min Rain = 0
KFAS 150310Z 22003KT 06/01 A2972 RMK A01 T00570008  RH  072%=      5-min Rain = 0
KFAS 150315Z 20003KT 06/01 A2972 RMK A01 T00590008  RH  071%=      5-min Rain = 0
KFAS 150320Z 20003KT 06/01 A2972 RMK A01 T00570007  RH  071%=      5-min Rain = 0
KFAS 150325Z 21005KT 06/01 A2972 RMK A01 T00590008  RH  071%=      5-min Rain = 0
KFAS 150330Z 20004KT 06/01 A2972 RMK A01 T00600006  RH  070%=      5-min Rain = 0
KFAS 150335Z 20004KT 06/01 A2972 RMK A01 T00600007  RH  070%=      5-min Rain = 0
KFAS 150340Z 16003KT 06/M01 A2972 RMK A01 T00571005  RH  065%=      5-min Rain = 0
KFAS 150345Z 15004KT 04/M01 A2973 RMK A01 T00401012  RH  069%=      5-min Rain = 0
KFAS 150350Z 22004KT 04/M00 A2972 RMK A01 T00431001  RH  074%=      5-min Rain = 0
KFAS 150355Z 21002KT 04/M00 A2973 RMK A01 T00441002  RH  073%=      5-min Rain = 0
KFAS 150400Z 12002KT 04/M00 A2972 RMK A01 T00411002  RH  074%=      5-min Rain = 0
KFAS 150405Z 16003KT 04/M00 A2972 RMK A01 T00401004  RH  074%=      5-min Rain = 0
KFAS 150410Z 19003KT 05/00 A2972 RMK A01 T00470001  RH  073%=      5-min Rain = 0
KFAS 150415Z 17003KT 05/00 A2972 RMK A01 T004800-0  RH  072%=      5-min Rain = 0
KFAS 150420Z 18002KT 05/00 A2972 RMK A01 T00500003  RH  073%=      5-min Rain = 0
KFAS 150425Z 12001KT 05/00 A2972 RMK A01 T00490002  RH  072%=      5-min Rain = 0
KFAS 150430Z 15006KT 05/M00 A2972 RMK A01 T00471002  RH  071%=      5-min Rain = 0
KFAS 150435Z 15008KT 05/00 A2973 RMK A01 T00480002  RH  073%=      5-min Rain = 0
KFAS 150440Z 14006KT 05/00 A2973 RMK A01 T00500003  RH  072%=      5-min Rain = 0
KFAS 150445Z 13006KT 05/00 A2973 RMK A01 T00490002  RH  072%=      5-min Rain = 0
KFAS 150450Z 15006KT 05/00 A2973 RMK A01 T00480003  RH  074%=      5-min Rain = 0
KFAS 150455Z 16008KT 05/01 A2974 RMK A01 T00490007  RH  075%=      5-min Rain = 0
KFAS 150500Z 16008KT 05/01 A2973 RMK A01 T00510009  RH  075%=      5-min Rain = 0
KFAS 150505Z 16009KT 05/01 A2973 RMK A01 T00530010  RH  075%=      5-min Rain = 0
KFAS 150510Z 15009KT 05/01 A2973 RMK A01 T00540011  RH  075%=      5-min Rain = 0
KFAS 150515Z 16009KT 05/01 A2973 RMK A01 T00530011  RH  075%=      5-min Rain = 0
KFAS 150520Z 15009KT 05/01 A2973 RMK A01 T00520011  RH  076%=      5-min Rain = 0
KFAS 150525Z 15008KT 05/01 A2973 RMK A01 T00500010  RH  076%=      5-min Rain = 0
KFAS 150530Z 15007KT 05/01 A2973 RMK A01 T00480010  RH  077%=      5-min Rain = 0
KFAS 150535Z 14006KT 05/01 A2973 RMK A01 T00470009  RH  077%=      5-min Rain = 0
KFAS 150540Z 14006KT 05/01 A2973 RMK A01 T00460008  RH  077%=      5-min Rain = 0
KFAS 150545Z 14006KT 04/01 A2973 RMK A01 T00440007  RH  078%=      5-min Rain = 0
KFAS 150550Z 14006KT 04/01 A2973 RMK A01 T00430006  RH  078%=      5-min Rain = 0
KFAS 150555Z 14006KT 04/01 A2973 RMK A01 T00410005  RH  079%=      5-min Rain = 0

Page generated in 0.0092 seconds.